sensor_id;sensor_type;location;lat;lon;timestamp;pressure;altitude;pressure_sealevel;temperature;humidity
11971;BME280;6045;42.682;23.294;2023-12-07T00:01:12;94277.88;;;7.07;93.59
11971;BME280;6045;42.682;23.294;2023-12-07T00:03:38;94277.34;;;6.98;93.64
11971;BME280;6045;42.682;23.294;2023-12-07T00:06:05;94285.72;;;6.95;94.19
11971;BME280;6045;42.682;23.294;2023-12-07T00:08:33;94289.97;;;6.78;94.44
11971;BME280;6045;42.682;23.294;2023-12-07T00:11:00;94290.72;;;6.85;94.73
11971;BME280;6045;42.682;23.294;2023-12-07T00:13:27;94287.25;;;6.84;95.03
11971;BME280;6045;42.682;23.294;2023-12-07T00:15:54;94284.19;;;6.87;94.85
11971;BME280;6045;42.682;23.294;2023-12-07T00:18:21;94289.81;;;6.98;95.37
11971;BME280;6045;42.682;23.294;2023-12-07T00:20:48;94297.53;;;7.06;95.30
11971;BME280;6045;42.682;23.294;2023-12-07T00:23:15;94283.19;;;7.07;95.55
11971;BME280;6045;42.682;23.294;2023-12-07T00:25:43;94295.41;;;7.14;95.19
11971;BME280;6045;42.682;23.294;2023-12-07T00:28:11;94290.63;;;6.98;93.90
11971;BME280;6045;42.682;23.294;2023-12-07T00:30:38;94290.50;;;6.86;93.50
11971;BME280;6045;42.682;23.294;2023-12-07T00:33:05;94289.16;;;6.77;93.62
11971;BME280;6045;42.682;23.294;2023-12-07T00:35:32;94290.84;;;6.65;93.31
11971;BME280;6045;42.682;23.294;2023-12-07T00:37:58;94283.56;;;6.54;93.89
11971;BME280;6045;42.682;23.294;2023-12-07T00:40:25;94287.66;;;6.50;94.83
11971;BME280;6045;42.682;23.294;2023-12-07T00:42:54;94283.59;;;6.48;95.37
11971;BME280;6045;42.682;23.294;2023-12-07T00:45:20;94289.53;;;6.50;95.86
11971;BME280;6045;42.682;23.294;2023-12-07T00:47:47;94289.97;;;6.40;95.63
11971;BME280;6045;42.682;23.294;2023-12-07T00:50:14;94287.16;;;6.35;96.21
11971;BME280;6045;42.682;23.294;2023-12-07T00:52:41;94281.56;;;6.43;96.79
11971;BME280;6045;42.682;23.294;2023-12-07T00:55:08;94279.16;;;6.42;96.98
11971;BME280;6045;42.682;23.294;2023-12-07T00:57:35;94276.91;;;6.45;97.26
11971;BME280;6045;42.682;23.294;2023-12-07T01:00:05;94283.13;;;6.57;97.19
11971;BME280;6045;42.682;23.294;2023-12-07T01:02:33;94284.16;;;6.56;96.92
11971;BME280;6045;42.682;23.294;2023-12-07T01:05:00;94286.22;;;6.54;96.49
11971;BME280;6045;42.682;23.294;2023-12-07T01:07:27;94278.34;;;6.72;96.90
11971;BME280;6045;42.682;23.294;2023-12-07T01:09:54;94281.53;;;6.81;96.48
11971;BME280;6045;42.682;23.294;2023-12-07T01:12:20;94274.78;;;6.85;96.45
11971;BME280;6045;42.682;23.294;2023-12-07T01:14:48;94280.13;;;6.78;95.92
11971;BME280;6045;42.682;23.294;2023-12-07T01:17:16;94279.47;;;6.89;95.75
11971;BME280;6045;42.682;23.294;2023-12-07T01:19:43;94275.56;;;6.92;94.86
11971;BME280;6045;42.682;23.294;2023-12-07T01:22:10;94281.25;;;6.96;94.76
11971;BME280;6045;42.682;23.294;2023-12-07T01:24:37;94277.16;;;6.93;94.51
11971;BME280;6045;42.682;23.294;2023-12-07T01:27:04;94279.63;;;6.95;94.49
11971;BME280;6045;42.682;23.294;2023-12-07T01:29:31;94274.91;;;6.97;94.49
11971;BME280;6045;42.682;23.294;2023-12-07T01:31:58;94270.91;;;6.87;94.42
11971;BME280;6045;42.682;23.294;2023-12-07T01:34:26;94271.50;;;6.89;94.42
11971;BME280;6045;42.682;23.294;2023-12-07T01:36:53;94263.47;;;6.96;94.55
11971;BME280;6045;42.682;23.294;2023-12-07T01:39:20;94272.41;;;7.02;94.47
11971;BME280;6045;42.682;23.294;2023-12-07T01:41:47;94271.38;;;7.03;94.16
11971;BME280;6045;42.682;23.294;2023-12-07T01:44:14;94269.31;;;7.05;93.78
11971;BME280;6045;42.682;23.294;2023-12-07T01:46:41;94275.63;;;7.10;94.31
11971;BME280;6045;42.682;23.294;2023-12-07T01:49:09;94271.31;;;7.09;93.56
11971;BME280;6045;42.682;23.294;2023-12-07T01:51:37;94266.66;;;7.05;93.40
11971;BME280;6045;42.682;23.294;2023-12-07T01:54:05;94269.31;;;7.05;93.99
11971;BME280;6045;42.682;23.294;2023-12-07T01:56:31;94272.78;;;7.05;93.83
11971;BME280;6045;42.682;23.294;2023-12-07T01:58:58;94269.97;;;7.00;93.94
11971;BME280;6045;42.682;23.294;2023-12-07T02:01:25;94268.13;;;7.01;93.97
11971;BME280;6045;42.682;23.294;2023-12-07T02:03:52;94266.28;;;7.01;93.79
11971;BME280;6045;42.682;23.294;2023-12-07T02:06:19;94261.69;;;6.90;93.90
11971;BME280;6045;42.682;23.294;2023-12-07T02:08:48;94268.59;;;6.91;94.19
11971;BME280;6045;42.682;23.294;2023-12-07T02:11:15;94265.84;;;6.79;93.19
11971;BME280;6045;42.682;23.294;2023-12-07T02:13:43;94272.84;;;6.67;93.56
11971;BME280;6045;42.682;23.294;2023-12-07T02:16:15;94268.00;;;6.58;93.99
11971;BME280;6045;42.682;23.294;2023-12-07T02:18:49;94259.88;;;6.53;94.67
11971;BME280;6045;42.682;23.294;2023-12-07T02:21:21;94259.50;;;6.49;95.54
11971;BME280;6045;42.682;23.294;2023-12-07T02:23:53;94258.63;;;6.55;96.08
11971;BME280;6045;42.682;23.294;2023-12-07T02:26:50;94257.97;;;6.66;96.52
11971;BME280;6045;42.682;23.294;2023-12-07T02:29:17;94253.69;;;6.65;96.13
11971;BME280;6045;42.682;23.294;2023-12-07T02:31:44;94253.78;;;6.77;96.25
11971;BME280;6045;42.682;23.294;2023-12-07T02:34:11;94249.47;;;6.82;95.38
11971;BME280;6045;42.682;23.294;2023-12-07T02:36:39;94261.34;;;6.80;95.23
11971;BME280;6045;42.682;23.294;2023-12-07T02:39:06;94253.75;;;6.83;95.40
11971;BME280;6045;42.682;23.294;2023-12-07T02:41:35;94253.84;;;6.70;95.03
11971;BME280;6045;42.682;23.294;2023-12-07T02:44:05;94251.38;;;6.75;95.49
11971;BME280;6045;42.682;23.294;2023-12-07T02:46:33;94250.16;;;6.71;95.41
11971;BME280;6045;42.682;23.294;2023-12-07T02:49:00;94251.09;;;6.83;95.60
11971;BME280;6045;42.682;23.294;2023-12-07T02:51:27;94245.75;;;6.90;95.46
11971;BME280;6045;42.682;23.294;2023-12-07T02:53:54;94247.88;;;7.00;95.08
11971;BME280;6045;42.682;23.294;2023-12-07T02:56:21;94246.22;;;6.80;94.74
11971;BME280;6045;42.682;23.294;2023-12-07T02:58:48;94248.25;;;6.78;94.76
11971;BME280;6045;42.682;23.294;2023-12-07T03:01:16;94245.59;;;6.78;94.98
11971;BME280;6045;42.682;23.294;2023-12-07T03:03:43;94245.41;;;6.80;94.80
11971;BME280;6045;42.682;23.294;2023-12-07T03:06:10;94252.22;;;6.69;94.65
11971;BME280;6045;42.682;23.294;2023-12-07T03:08:37;94258.75;;;6.73;94.98
11971;BME280;6045;42.682;23.294;2023-12-07T03:11:05;94256.69;;;6.75;95.41
11971;BME280;6045;42.682;23.294;2023-12-07T03:13:32;94253.19;;;6.75;95.34
11971;BME280;6045;42.682;23.294;2023-12-07T03:15:58;94259.34;;;6.75;94.84
11971;BME280;6045;42.682;23.294;2023-12-07T03:18:27;94261.47;;;6.60;94.40
11971;BME280;6045;42.682;23.294;2023-12-07T03:20:54;94260.63;;;6.66;94.54
11971;BME280;6045;42.682;23.294;2023-12-07T03:23:21;94263.22;;;6.73;94.92
11971;BME280;6045;42.682;23.294;2023-12-07T03:25:47;94270.38;;;6.72;94.67
11971;BME280;6045;42.682;23.294;2023-12-07T03:28:14;94278.09;;;6.80;94.57
11971;BME280;6045;42.682;23.294;2023-12-07T03:30:41;94275.88;;;6.77;94.43
11971;BME280;6045;42.682;23.294;2023-12-07T03:33:08;94279.13;;;6.79;94.51
11971;BME280;6045;42.682;23.294;2023-12-07T03:35:37;94285.63;;;6.83;94.04
11971;BME280;6045;42.682;23.294;2023-12-07T03:38:03;94283.41;;;6.80;93.41
11971;BME280;6045;42.682;23.294;2023-12-07T03:40:30;94281.81;;;6.73;93.80
11971;BME280;6045;42.682;23.294;2023-12-07T03:42:57;94277.94;;;6.75;93.65
11971;BME280;6045;42.682;23.294;2023-12-07T03:45:24;94279.34;;;6.71;93.64
11971;BME280;6045;42.682;23.294;2023-12-07T03:47:51;94279.34;;;6.71;93.17
11971;BME280;6045;42.682;23.294;2023-12-07T03:50:18;94273.81;;;6.79;93.23
11971;BME280;6045;42.682;23.294;2023-12-07T03:52:46;94276.81;;;6.83;93.06
11971;BME280;6045;42.682;23.294;2023-12-07T03:55:13;94274.03;;;6.78;93.01
11971;BME280;6045;42.682;23.294;2023-12-07T03:57:40;94273.25;;;6.71;93.23
11971;BME280;6045;42.682;23.294;2023-12-07T04:00:11;94271.50;;;6.83;93.85
11971;BME280;6045;42.682;23.294;2023-12-07T04:02:38;94268.00;;;6.89;93.75
11971;BME280;6045;42.682;23.294;2023-12-07T04:05:06;94262.47;;;6.90;93.25
11971;BME280;6045;42.682;23.294;2023-12-07T04:07:33;94265.78;;;6.86;93.16
11971;BME280;6045;42.682;23.294;2023-12-07T04:10:01;94272.34;;;6.83;93.40
11971;BME280;6045;42.682;23.294;2023-12-07T04:12:31;94279.00;;;6.93;93.71
11971;BME280;6045;42.682;23.294;2023-12-07T04:14:57;94274.47;;;7.00;93.79
11971;BME280;6045;42.682;23.294;2023-12-07T04:17:24;94275.66;;;7.04;93.78
11971;BME280;6045;42.682;23.294;2023-12-07T04:19:51;94280.34;;;7.08;93.19
11971;BME280;6045;42.682;23.294;2023-12-07T04:22:18;94285.59;;;7.15;92.55
11971;BME280;6045;42.682;23.294;2023-12-07T04:24:45;94294.38;;;7.15;92.05
11971;BME280;6045;42.682;23.294;2023-12-07T04:27:13;94292.22;;;7.06;91.87
11971;BME280;6045;42.682;23.294;2023-12-07T04:29:40;94290.84;;;6.97;92.00
11971;BME280;6045;42.682;23.294;2023-12-07T04:32:07;94298.06;;;6.89;91.97
11971;BME280;6045;42.682;23.294;2023-12-07T04:34:34;94293.84;;;6.75;91.44
11971;BME280;6045;42.682;23.294;2023-12-07T04:37:01;94299.28;;;6.56;91.58
11971;BME280;6045;42.682;23.294;2023-12-07T04:39:28;94304.63;;;6.49;92.74
11971;BME280;6045;42.682;23.294;2023-12-07T04:41:55;94300.69;;;6.58;93.95
11971;BME280;6045;42.682;23.294;2023-12-07T04:44:24;94305.38;;;6.63;93.86
11971;BME280;6045;42.682;23.294;2023-12-07T04:46:52;94310.13;;;6.54;93.58
11971;BME280;6045;42.682;23.294;2023-12-07T04:49:19;94300.75;;;6.52;93.74
11971;BME280;6045;42.682;23.294;2023-12-07T04:51:45;94304.50;;;6.38;94.38
11971;BME280;6045;42.682;23.294;2023-12-07T04:54:13;94301.19;;;6.42;94.90
11971;BME280;6045;42.682;23.294;2023-12-07T04:56:40;94304.72;;;6.30;94.78
11971;BME280;6045;42.682;23.294;2023-12-07T04:59:07;94305.31;;;6.32;95.20
11971;BME280;6045;42.682;23.294;2023-12-07T05:01:36;94309.97;;;6.43;95.77
11971;BME280;6045;42.682;23.294;2023-12-07T05:04:03;94302.94;;;6.55;96.21
11971;BME280;6045;42.682;23.294;2023-12-07T05:06:30;94311.28;;;6.65;95.87
11971;BME280;6045;42.682;23.294;2023-12-07T05:08:57;94310.22;;;7.04;99.15
11971;BME280;6045;42.682;23.294;2023-12-07T05:11:25;94309.72;;;8.71;100.00
11971;BME280;6045;42.682;23.294;2023-12-07T05:13:52;94318.13;;;9.39;100.00
11971;BME280;6045;42.682;23.294;2023-12-07T05:16:19;94314.84;;;9.37;100.00
11971;BME280;6045;42.682;23.294;2023-12-07T05:18:47;94319.41;;;9.72;100.00
11971;BME280;6045;42.682;23.294;2023-12-07T05:21:14;94315.31;;;10.27;100.00
11971;BME280;6045;42.682;23.294;2023-12-07T05:23:41;94317.78;;;10.68;100.00
11971;BME280;6045;42.682;23.294;2023-12-07T05:26:07;94318.41;;;10.87;100.00
11971;BME280;6045;42.682;23.294;2023-12-07T05:28:36;94322.53;;;11.06;100.00
11971;BME280;6045;42.682;23.294;2023-12-07T05:31:04;94324.56;;;11.16;96.90
11971;BME280;6045;42.682;23.294;2023-12-07T05:33:31;94329.44;;;11.19;89.55
11971;BME280;6045;42.682;23.294;2023-12-07T05:35:59;94333.06;;;10.84;83.28
11971;BME280;6045;42.682;23.294;2023-12-07T05:38:27;94337.25;;;10.52;78.90
11971;BME280;6045;42.682;23.294;2023-12-07T05:40:54;94343.94;;;10.15;77.82
11971;BME280;6045;42.682;23.294;2023-12-07T05:43:21;94346.69;;;9.74;78.41
11971;BME280;6045;42.682;23.294;2023-12-07T05:45:48;94348.94;;;9.35;79.38
11971;BME280;6045;42.682;23.294;2023-12-07T05:48:15;94339.03;;;9.13;81.07
11971;BME280;6045;42.682;23.294;2023-12-07T05:50:42;94342.03;;;8.75;81.26
11971;BME280;6045;42.682;23.294;2023-12-07T05:53:10;94341.63;;;8.42;82.58
11971;BME280;6045;42.682;23.294;2023-12-07T05:55:38;94349.88;;;8.15;83.84
11971;BME280;6045;42.682;23.294;2023-12-07T05:58:05;94350.97;;;7.90;85.35
11971;BME280;6045;42.682;23.294;2023-12-07T06:00:32;94344.56;;;7.73;86.71
11971;BME280;6045;42.682;23.294;2023-12-07T06:02:59;94345.78;;;7.52;87.15
11971;BME280;6045;42.682;23.294;2023-12-07T06:05:26;94345.31;;;7.37;88.09
11971;BME280;6045;42.682;23.294;2023-12-07T06:07:53;94351.50;;;7.31;88.83
11971;BME280;6045;42.682;23.294;2023-12-07T06:10:22;94352.63;;;7.17;89.29
11971;BME280;6045;42.682;23.294;2023-12-07T06:12:49;94349.53;;;6.88;89.99
11971;BME280;6045;42.682;23.294;2023-12-07T06:15:16;94352.97;;;6.96;91.33
11971;BME280;6045;42.682;23.294;2023-12-07T06:17:43;94348.19;;;7.11;92.71
11971;BME280;6045;42.682;23.294;2023-12-07T06:20:10;94348.53;;;7.14;92.63
11971;BME280;6045;42.682;23.294;2023-12-07T06:22:37;94352.41;;;7.18;92.52
11971;BME280;6045;42.682;23.294;2023-12-07T06:25:04;94355.28;;;7.17;93.51
11971;BME280;6045;42.682;23.294;2023-12-07T06:27:32;94351.59;;;7.18;93.89
11971;BME280;6045;42.682;23.294;2023-12-07T06:29:59;94358.34;;;7.20;93.89
11971;BME280;6045;42.682;23.294;2023-12-07T06:32:27;94351.28;;;7.32;92.94
11971;BME280;6045;42.682;23.294;2023-12-07T06:34:54;94354.91;;;7.38;92.37
11971;BME280;6045;42.682;23.294;2023-12-07T06:37:21;94367.34;;;7.44;92.01
11971;BME280;6045;42.682;23.294;2023-12-07T06:39:47;94370.78;;;7.51;91.49
11971;BME280;6045;42.682;23.294;2023-12-07T06:42:15;94370.16;;;7.49;91.55
11971;BME280;6045;42.682;23.294;2023-12-07T06:44:46;94372.38;;;7.52;91.16
11971;BME280;6045;42.682;23.294;2023-12-07T06:47:14;94368.25;;;7.56;91.19
11971;BME280;6045;42.682;23.294;2023-12-07T06:49:41;94371.06;;;7.61;91.22
11971;BME280;6045;42.682;23.294;2023-12-07T06:52:08;94372.78;;;7.55;90.74
11971;BME280;6045;42.682;23.294;2023-12-07T06:54:36;94381.25;;;7.46;90.16
11971;BME280;6045;42.682;23.294;2023-12-07T06:57:04;94377.38;;;7.42;90.46
11971;BME280;6045;42.682;23.294;2023-12-07T06:59:32;94378.25;;;7.36;90.84
11971;BME280;6045;42.682;23.294;2023-12-07T07:02:01;94376.47;;;7.30;89.97
11971;BME280;6045;42.682;23.294;2023-12-07T07:04:28;94378.78;;;7.20;90.81
11971;BME280;6045;42.682;23.294;2023-12-07T07:06:55;94370.56;;;7.21;91.19
11971;BME280;6045;42.682;23.294;2023-12-07T07:09:22;94378.94;;;7.25;91.44
11971;BME280;6045;42.682;23.294;2023-12-07T07:11:49;94386.16;;;7.18;91.58
11971;BME280;6045;42.682;23.294;2023-12-07T07:14:16;94386.16;;;7.18;91.82
11971;BME280;6045;42.682;23.294;2023-12-07T07:16:43;94385.28;;;7.24;92.09
11971;BME280;6045;42.682;23.294;2023-12-07T07:19:16;94381.78;;;7.30;91.88
11971;BME280;6045;42.682;23.294;2023-12-07T07:21:43;94391.28;;;7.44;91.96
11971;BME280;6045;42.682;23.294;2023-12-07T07:24:10;94385.97;;;7.44;91.79
11971;BME280;6045;42.682;23.294;2023-12-07T07:26:37;94388.44;;;7.39;91.64
11971;BME280;6045;42.682;23.294;2023-12-07T07:29:04;94392.59;;;7.28;92.21
11971;BME280;6045;42.682;23.294;2023-12-07T07:31:31;94383.91;;;7.15;91.58
11971;BME280;6045;42.682;23.294;2023-12-07T07:34:01;94395.19;;;7.10;92.03
11971;BME280;6045;42.682;23.294;2023-12-07T07:36:31;94397.16;;;6.90;92.30
11971;BME280;6045;42.682;23.294;2023-12-07T07:38:58;94398.94;;;6.96;92.88
11971;BME280;6045;42.682;23.294;2023-12-07T07:41:24;94399.69;;;7.10;92.77
11971;BME280;6045;42.682;23.294;2023-12-07T07:43:51;94406.97;;;7.21;92.88
11971;BME280;6045;42.682;23.294;2023-12-07T07:46:17;94411.72;;;7.12;92.42
11971;BME280;6045;42.682;23.294;2023-12-07T07:48:44;94414.00;;;7.09;92.41
11971;BME280;6045;42.682;23.294;2023-12-07T07:51:11;94414.28;;;6.94;91.70
11971;BME280;6045;42.682;23.294;2023-12-07T07:53:40;94406.88;;;7.03;91.68
11971;BME280;6045;42.682;23.294;2023-12-07T07:56:07;94409.94;;;7.00;91.33
11971;BME280;6045;42.682;23.294;2023-12-07T07:58:35;94414.47;;;6.93;90.71
11971;BME280;6045;42.682;23.294;2023-12-07T08:01:02;94425.25;;;7.11;91.34
11971;BME280;6045;42.682;23.294;2023-12-07T08:03:29;94422.69;;;6.91;90.05
11971;BME280;6045;42.682;23.294;2023-12-07T08:05:56;94431.28;;;6.86;90.35
11971;BME280;6045;42.682;23.294;2023-12-07T08:08:23;94434.28;;;6.52;90.08
11971;BME280;6045;42.682;23.294;2023-12-07T08:10:53;94438.41;;;6.35;90.40
11971;BME280;6045;42.682;23.294;2023-12-07T08:13:20;94437.56;;;6.41;91.67
11971;BME280;6045;42.682;23.294;2023-12-07T08:15:46;94448.59;;;6.51;92.19
11971;BME280;6045;42.682;23.294;2023-12-07T08:18:13;94443.66;;;6.61;92.54
11971;BME280;6045;42.682;23.294;2023-12-07T08:20:41;94446.91;;;6.63;91.47
11971;BME280;6045;42.682;23.294;2023-12-07T08:23:10;94445.88;;;6.64;91.92
11971;BME280;6045;42.682;23.294;2023-12-07T08:25:38;94458.97;;;6.66;90.93
11971;BME280;6045;42.682;23.294;2023-12-07T08:28:06;94455.97;;;6.43;89.98
11971;BME280;6045;42.682;23.294;2023-12-07T08:30:34;94456.00;;;6.23;90.38
11971;BME280;6045;42.682;23.294;2023-12-07T08:33:01;94459.91;;;6.14;90.93
11971;BME280;6045;42.682;23.294;2023-12-07T08:35:28;94459.91;;;6.14;91.16
11971;BME280;6045;42.682;23.294;2023-12-07T08:37:57;94471.34;;;6.14;91.23
11971;BME280;6045;42.682;23.294;2023-12-07T08:40:24;94464.00;;;5.97;91.17
11971;BME280;6045;42.682;23.294;2023-12-07T08:42:51;94461.97;;;5.86;90.75
11971;BME280;6045;42.682;23.294;2023-12-07T08:45:20;94461.53;;;5.76;90.79
11971;BME280;6045;42.682;23.294;2023-12-07T08:47:46;94467.47;;;5.91;92.03
11971;BME280;6045;42.682;23.294;2023-12-07T08:50:14;94474.00;;;5.95;90.58
11971;BME280;6045;42.682;23.294;2023-12-07T08:52:40;94477.25;;;5.84;90.67
11971;BME280;6045;42.682;23.294;2023-12-07T08:55:08;94474.56;;;5.51;90.85
11971;BME280;6045;42.682;23.294;2023-12-07T08:57:34;94470.69;;;5.53;91.43
11971;BME280;6045;42.682;23.294;2023-12-07T09:00:01;94477.22;;;5.58;92.18
11971;BME280;6045;42.682;23.294;2023-12-07T09:02:30;94476.81;;;5.47;91.33
11971;BME280;6045;42.682;23.294;2023-12-07T09:04:57;94476.19;;;5.39;91.86
11971;BME280;6045;42.682;23.294;2023-12-07T09:07:24;94473.13;;;5.42;92.54
11971;BME280;6045;42.682;23.294;2023-12-07T09:09:51;94471.72;;;5.46;92.65
11971;BME280;6045;42.682;23.294;2023-12-07T09:12:18;94468.25;;;5.45;92.03
11971;BME280;6045;42.682;23.294;2023-12-07T09:14:45;94470.69;;;5.47;92.20
11971;BME280;6045;42.682;23.294;2023-12-07T09:17:12;94472.31;;;5.41;91.68
11971;BME280;6045;42.682;23.294;2023-12-07T09:19:40;94471.28;;;5.42;92.28
11971;BME280;6045;42.682;23.294;2023-12-07T09:22:08;94474.16;;;5.41;91.31
11971;BME280;6045;42.682;23.294;2023-12-07T09:24:37;94479.00;;;5.24;91.48
11971;BME280;6045;42.682;23.294;2023-12-07T09:27:04;94477.97;;;5.12;92.31
11971;BME280;6045;42.682;23.294;2023-12-07T09:29:31;94473.66;;;5.11;93.04
11971;BME280;6045;42.682;23.294;2023-12-07T09:31:58;94483.84;;;5.01;92.42
11971;BME280;6045;42.682;23.294;2023-12-07T09:34:25;94482.81;;;4.96;92.93
11971;BME280;6045;42.682;23.294;2023-12-07T09:37:06;94482.13;;;4.80;93.14
11971;BME280;6045;42.682;23.294;2023-12-07T09:39:33;94473.78;;;4.77;94.30
11971;BME280;6045;42.682;23.294;2023-12-07T09:42:01;94480.22;;;4.61;93.94
11971;BME280;6045;42.682;23.294;2023-12-07T09:44:28;94478.56;;;4.54;95.01
11971;BME280;6045;42.682;23.294;2023-12-07T09:46:55;94482.69;;;4.63;95.33
11971;BME280;6045;42.682;23.294;2023-12-07T09:49:22;94480.38;;;4.47;94.40
11971;BME280;6045;42.682;23.294;2023-12-07T09:51:49;94478.06;;;4.37;94.93
11971;BME280;6045;42.682;23.294;2023-12-07T09:54:20;94477.19;;;4.24;95.23
11971;BME280;6045;42.682;23.294;2023-12-07T09:56:48;94483.84;;;4.20;95.23
11971;BME280;6045;42.682;23.294;2023-12-07T09:59:16;94480.97;;;4.14;96.26
11971;BME280;6045;42.682;23.294;2023-12-07T10:01:43;94482.81;;;4.14;96.96
11971;BME280;6045;42.682;23.294;2023-12-07T10:04:18;94479.97;;;4.15;97.18
11971;BME280;6045;42.682;23.294;2023-12-07T10:06:46;94481.34;;;4.05;96.50
11971;BME280;6045;42.682;23.294;2023-12-07T10:09:16;94484.78;;;4.05;96.85
11971;BME280;6045;42.682;23.294;2023-12-07T10:11:46;94486.63;;;4.05;96.39
11971;BME280;6045;42.682;23.294;2023-12-07T10:14:13;94481.28;;;3.98;96.55
11971;BME280;6045;42.682;23.294;2023-12-07T10:16:52;94477.97;;;3.90;96.33
11971;BME280;6045;42.682;23.294;2023-12-07T10:19:20;94470.88;;;3.90;96.69
11971;BME280;6045;42.682;23.294;2023-12-07T10:21:48;94476.16;;;3.90;97.45
11971;BME280;6045;42.682;23.294;2023-12-07T10:24:16;94480.63;;;3.90;97.96
11971;BME280;6045;42.682;23.294;2023-12-07T10:26:44;94469.84;;;3.91;98.07
11971;BME280;6045;42.682;23.294;2023-12-07T10:29:14;94477.78;;;3.91;97.25
11971;BME280;6045;42.682;23.294;2023-12-07T10:31:41;94475.47;;;3.82;97.20
11971;BME280;6045;42.682;23.294;2023-12-07T10:34:09;94479.72;;;3.76;97.18
11971;BME280;6045;42.682;23.294;2023-12-07T10:36:36;94467.81;;;3.66;97.09
11971;BME280;6045;42.682;23.294;2023-12-07T10:39:03;94466.81;;;3.67;97.33
11971;BME280;6045;42.682;23.294;2023-12-07T10:41:33;94474.72;;;3.60;97.32
11971;BME280;6045;42.682;23.294;2023-12-07T10:44:01;94474.81;;;3.52;97.39
11971;BME280;6045;42.682;23.294;2023-12-07T10:46:32;94471.88;;;3.40;97.59
11971;BME280;6045;42.682;23.294;2023-12-07T10:49:00;94473.97;;;3.24;98.07
11971;BME280;6045;42.682;23.294;2023-12-07T10:51:31;94479.63;;;3.21;98.89
11971;BME280;6045;42.682;23.294;2023-12-07T10:54:03;94476.84;;;3.29;99.29
11971;BME280;6045;42.682;23.294;2023-12-07T10:56:39;94484.72;;;3.43;99.65
11971;BME280;6045;42.682;23.294;2023-12-07T10:59:08;94479.50;;;3.50;98.94
11971;BME280;6045;42.682;23.294;2023-12-07T11:01:38;94479.13;;;3.53;97.92
11971;BME280;6045;42.682;23.294;2023-12-07T11:04:05;94489.03;;;3.51;98.15
11971;BME280;6045;42.682;23.294;2023-12-07T11:06:33;94479.75;;;3.34;98.01
11971;BME280;6045;42.682;23.294;2023-12-07T11:09:05;94486.84;;;3.33;98.97
11971;BME280;6045;42.682;23.294;2023-12-07T11:11:38;94487.06;;;3.32;99.26
11971;BME280;6045;42.682;23.294;2023-12-07T11:14:07;94488.34;;;3.21;99.35
11971;BME280;6045;42.682;23.294;2023-12-07T11:16:40;94482.56;;;3.11;99.55
11971;BME280;6045;42.682;23.294;2023-12-07T11:22:11;94478.72;;;3.35;100.00
11971;BME280;6045;42.682;23.294;2023-12-07T11:24:52;94482.25;;;3.42;100.00
11971;BME280;6045;42.682;23.294;2023-12-07T11:27:19;94484.63;;;3.37;100.00
11971;BME280;6045;42.682;23.294;2023-12-07T11:29:46;94488.03;;;3.31;98.99
11971;BME280;6045;42.682;23.294;2023-12-07T11:32:15;94477.75;;;3.36;99.63
11971;BME280;6045;42.682;23.294;2023-12-07T11:34:43;94477.09;;;3.55;100.00
11971;BME280;6045;42.682;23.294;2023-12-07T11:37:15;94476.41;;;3.46;98.82
11971;BME280;6045;42.682;23.294;2023-12-07T11:39:42;94477.84;;;3.49;98.47
11971;BME280;6045;42.682;23.294;2023-12-07T11:42:11;94468.88;;;3.43;98.37
11971;BME280;6045;42.682;23.294;2023-12-07T11:44:39;94466.53;;;3.55;98.57
11971;BME280;6045;42.682;23.294;2023-12-07T11:47:07;94472.97;;;3.46;97.78
11971;BME280;6045;42.682;23.294;2023-12-07T11:49:36;94462.50;;;3.38;98.37
11971;BME280;6045;42.682;23.294;2023-12-07T11:52:13;94471.63;;;3.35;98.74
11971;BME280;6045;42.682;23.294;2023-12-07T11:54:43;94466.56;;;3.34;99.10
11971;BME280;6045;42.682;23.294;2023-12-07T11:57:10;94467.44;;;3.41;99.44
11971;BME280;6045;42.682;23.294;2023-12-07T11:59:37;94475.53;;;3.39;99.54
11971;BME280;6045;42.682;23.294;2023-12-07T12:02:04;94471.00;;;3.33;99.53
11971;BME280;6045;42.682;23.294;2023-12-07T12:04:31;94469.88;;;3.42;99.94
11971;BME280;6045;42.682;23.294;2023-12-07T12:07:00;94467.09;;;3.51;99.62
11971;BME280;6045;42.682;23.294;2023-12-07T12:09:27;94468.34;;;3.55;99.84
11971;BME280;6045;42.682;23.294;2023-12-07T12:11:56;94462.88;;;3.56;99.78
11971;BME280;6045;42.682;23.294;2023-12-07T12:14:26;94465.47;;;3.50;98.69
11971;BME280;6045;42.682;23.294;2023-12-07T12:16:53;94463.63;;;3.50;99.10
11971;BME280;6045;42.682;23.294;2023-12-07T12:19:22;94468.31;;;3.48;98.83
11971;BME280;6045;42.682;23.294;2023-12-07T12:21:49;94469.03;;;3.42;99.51
11971;BME280;6045;42.682;23.294;2023-12-07T12:24:17;94461.94;;;3.42;99.73
11971;BME280;6045;42.682;23.294;2023-12-07T12:26:44;94466.97;;;3.37;98.91
11971;BME280;6045;42.682;23.294;2023-12-07T12:29:13;94467.69;;;3.46;98.96
11971;BME280;6045;42.682;23.294;2023-12-07T12:31:41;94468.31;;;3.48;99.01
11971;BME280;6045;42.682;23.294;2023-12-07T12:34:08;94465.56;;;3.41;98.82
11971;BME280;6045;42.682;23.294;2023-12-07T12:36:38;94471.25;;;3.38;98.67
11971;BME280;6045;42.682;23.294;2023-12-07T12:39:05;94468.88;;;3.43;99.13
11971;BME280;6045;42.682;23.294;2023-12-07T12:41:35;94467.69;;;3.46;98.54
11971;BME280;6045;42.682;23.294;2023-12-07T12:44:02;94463.91;;;3.34;98.41
11971;BME280;6045;42.682;23.294;2023-12-07T12:46:29;94473.66;;;3.33;98.63
11971;BME280;6045;42.682;23.294;2023-12-07T12:48:57;94475.66;;;3.31;98.89
11971;BME280;6045;42.682;23.294;2023-12-07T12:51:25;94474.34;;;3.21;98.35
11971;BME280;6045;42.682;23.294;2023-12-07T12:53:54;94471.91;;;3.19;98.84
11971;BME280;6045;42.682;23.294;2023-12-07T12:56:21;94475.09;;;3.15;99.19
11971;BME280;6045;42.682;23.294;2023-12-07T12:58:51;94476.72;;;3.16;99.44
11971;BME280;6045;42.682;23.294;2023-12-07T13:01:18;94482.31;;;3.06;99.23
11971;BME280;6045;42.682;23.294;2023-12-07T13:03:46;94487.53;;;3.00;99.40
11971;BME280;6045;42.682;23.294;2023-12-07T13:06:13;94487.81;;;2.90;99.55
11971;BME280;6045;42.682;23.294;2023-12-07T13:08:40;94493.03;;;2.84;100.00
11971;BME280;6045;42.682;23.294;2023-12-07T13:11:09;94494.41;;;2.80;100.00
11971;BME280;6045;42.682;23.294;2023-12-07T13:13:36;94498.31;;;2.84;100.00
11971;BME280;6045;42.682;23.294;2023-12-07T13:16:05;94498.94;;;2.86;100.00